ポンタ・デルガダ の空港の天気 - METARとTAF

ポンタ・デルガダ空港 ( LPPD / PDL ) - ポルトガル ポンタ・デルガダ (サンミゲル島)
飛行場実況気象(Metar)
観測時間05/29 16:30 AZOST (05/29 16:30 UTC)
風向・風速西 7m/s
視程10km以上
天気現象
少しの雲 雲底高度 760m
全天の4割程度の雲 雲底高度 1220m
気温18℃
湿度60%
気圧1023hPa
METARLPPD 291630Z 28014KT 9999 FEW025 SCT040 18/10 Q1023
過去の天気等 Google飛行場航空写真 Wunderground天気予報

過去48時間のMETAR

飛行場予報(TAF)
発表時間: 5/29 11:00 AZOST (5/29 11:00 UTC)
予報対象時間: 29日12時 AZOST ~ 30日12時 AZOST
風向・風速不定 3m/s
視程10km以上
少しの雲 雲底高度 760m
全天の8割程度の雲 雲底高度 1220m
30日3時 AZOST ~ 30日6時 AZOST に徐々に
風向・風速西南西 7m/s
全天の4割程度の雲 雲底高度 300m
全天の8割程度の雲 雲底高度 550m
30日10時 AZOST ~ 30日12時 AZOST に 確率 40% で一時的に
視程3000m
天気現象霧雨雨 もや
全天の4割程度の雲 雲底高度 120m
全天の8割程度の雲 雲底高度 240m
TAF LPPD 291100Z 2912/3012 VRB05KT 9999 FEW025 BKN040
BECMG 3003/3006 24013KT SCT010 BKN018
PROB40 TEMPO 3010/3012 3000 DZRA BR SCT004 BKN008